sensor_id;sensor_type;location;lat;lon;timestamp;temperature;humidity
69204;DHT22;56317;27.658;85.326;2024-02-14T00:00:58;7.70;1.00
69204;DHT22;56317;27.658;85.326;2024-02-14T00:03:25;7.70;1.00
69204;DHT22;56317;27.658;85.326;2024-02-14T00:05:53;7.70;2.30
69204;DHT22;56317;27.658;85.326;2024-02-14T00:08:20;7.70;1.00
69204;DHT22;56317;27.658;85.326;2024-02-14T00:10:47;7.70;1.00
69204;DHT22;56317;27.658;85.326;2024-02-14T00:13:15;7.70;2.20
69204;DHT22;56317;27.658;85.326;2024-02-14T00:15:44;7.70;1.00
69204;DHT22;56317;27.658;85.326;2024-02-14T00:18:13;7.70;1.00
69204;DHT22;56317;27.658;85.326;2024-02-14T00:20:40;7.90;1.00
69204;DHT22;56317;27.658;85.326;2024-02-14T00:23:07;7.80;1.00
69204;DHT22;56317;27.658;85.326;2024-02-14T00:25:34;7.90;1.00
69204;DHT22;56317;27.658;85.326;2024-02-14T00:28:01;7.90;1.00
69204;DHT22;56317;27.658;85.326;2024-02-14T00:30:33;7.90;1.00
69204;DHT22;56317;27.658;85.326;2024-02-14T00:33:00;7.90;1.00
69204;DHT22;56317;27.658;85.326;2024-02-14T00:35:27;7.90;1.00
69204;DHT22;56317;27.658;85.326;2024-02-14T00:37:55;8.00;1.00
69204;DHT22;56317;27.658;85.326;2024-02-14T00:40:22;8.00;1.00
69204;DHT22;56317;27.658;85.326;2024-02-14T00:42:49;8.00;1.00
69204;DHT22;56317;27.658;85.326;2024-02-14T00:45:16;8.00;1.00
69204;DHT22;56317;27.658;85.326;2024-02-14T00:47:43;8.00;1.00
69204;DHT22;56317;27.658;85.326;2024-02-14T00:50:10;8.00;1.00
69204;DHT22;56317;27.658;85.326;2024-02-14T00:52:40;8.00;1.00
69204;DHT22;56317;27.658;85.326;2024-02-14T00:55:08;8.10;2.40
69204;DHT22;56317;27.658;85.326;2024-02-14T00:57:35;8.10;1.00
69204;DHT22;56317;27.658;85.326;2024-02-14T01:00:02;8.10;1.00
69204;DHT22;56317;27.658;85.326;2024-02-14T01:02:30;8.20;1.00
69204;DHT22;56317;27.658;85.326;2024-02-14T01:04:57;8.20;1.00
69204;DHT22;56317;27.658;85.326;2024-02-14T01:07:24;8.30;1.00
69204;DHT22;56317;27.658;85.326;2024-02-14T01:09:51;8.30;1.00
69204;DHT22;56317;27.658;85.326;2024-02-14T01:12:18;8.40;1.00
69204;DHT22;56317;27.658;85.326;2024-02-14T01:14:46;8.50;1.00
69204;DHT22;56317;27.658;85.326;2024-02-14T01:17:13;8.60;1.00
69204;DHT22;56317;27.658;85.326;2024-02-14T01:19:40;8.60;1.00
69204;DHT22;56317;27.658;85.326;2024-02-14T01:22:07;8.60;1.00
69204;DHT22;56317;27.658;85.326;2024-02-14T01:24:35;8.70;1.00
69204;DHT22;56317;27.658;85.326;2024-02-14T01:27:02;8.70;1.00
69204;DHT22;56317;27.658;85.326;2024-02-14T01:29:29;8.80;1.00
69204;DHT22;56317;27.658;85.326;2024-02-14T01:31:57;8.90;1.00
69204;DHT22;56317;27.658;85.326;2024-02-14T01:34:24;9.00;1.00
69204;DHT22;56317;27.658;85.326;2024-02-14T01:36:51;9.20;1.00
69204;DHT22;56317;27.658;85.326;2024-02-14T01:39:18;9.40;1.00
69204;DHT22;56317;27.658;85.326;2024-02-14T01:41:46;9.60;1.00
69204;DHT22;56317;27.658;85.326;2024-02-14T01:44:15;9.60;1.00
69204;DHT22;56317;27.658;85.326;2024-02-14T01:46:43;9.70;1.00
69204;DHT22;56317;27.658;85.326;2024-02-14T01:49:11;9.80;1.00
69204;DHT22;56317;27.658;85.326;2024-02-14T01:51:39;9.70;1.00
69204;DHT22;56317;27.658;85.326;2024-02-14T01:54:09;9.80;1.00
69204;DHT22;56317;27.658;85.326;2024-02-14T01:56:37;9.90;1.00
69204;DHT22;56317;27.658;85.326;2024-02-14T01:59:05;9.90;99.90
69204;DHT22;56317;27.658;85.326;2024-02-14T02:01:32;10.00;99.90
69204;DHT22;56317;27.658;85.326;2024-02-14T02:04:00;10.20;1.00
69204;DHT22;56317;27.658;85.326;2024-02-14T02:06:28;10.40;99.90
69204;DHT22;56317;27.658;85.326;2024-02-14T02:08:55;10.60;99.90
69204;DHT22;56317;27.658;85.326;2024-02-14T02:11:23;10.70;99.90
69204;DHT22;56317;27.658;85.326;2024-02-14T02:13:51;10.90;99.90
69204;DHT22;56317;27.658;85.326;2024-02-14T02:16:18;11.00;64.80
69204;DHT22;56317;27.658;85.326;2024-02-14T02:18:47;11.20;1.00
69204;DHT22;56317;27.658;85.326;2024-02-14T02:21:15;11.30;99.90
69204;DHT22;56317;27.658;85.326;2024-02-14T02:23:46;11.30;99.90
69204;DHT22;56317;27.658;85.326;2024-02-14T02:26:14;11.40;99.90
69204;DHT22;56317;27.658;85.326;2024-02-14T02:28:41;11.50;1.00
69204;DHT22;56317;27.658;85.326;2024-02-14T02:31:09;11.70;1.00
69204;DHT22;56317;27.658;85.326;2024-02-14T02:33:36;11.90;99.90
69204;DHT22;56317;27.658;85.326;2024-02-14T02:36:04;12.10;1.00
69204;DHT22;56317;27.658;85.326;2024-02-14T02:38:32;12.40;99.90
69204;DHT22;56317;27.658;85.326;2024-02-14T02:40:59;12.70;1.00
69204;DHT22;56317;27.658;85.326;2024-02-14T02:43:27;13.00;99.90
69204;DHT22;56317;27.658;85.326;2024-02-14T02:45:54;13.30;1.00
69204;DHT22;56317;27.658;85.326;2024-02-14T02:48:23;13.60;99.90
69204;DHT22;56317;27.658;85.326;2024-02-14T02:50:51;13.80;1.00
69204;DHT22;56317;27.658;85.326;2024-02-14T02:53:19;14.00;1.00
69204;DHT22;56317;27.658;85.326;2024-02-14T02:55:46;14.30;99.90
69204;DHT22;56317;27.658;85.326;2024-02-14T02:58:13;14.60;99.90
69204;DHT22;56317;27.658;85.326;2024-02-14T03:00:41;14.60;1.00
69204;DHT22;56317;27.658;85.326;2024-02-14T03:03:08;14.70;1.00
69204;DHT22;56317;27.658;85.326;2024-02-14T03:05:37;14.70;1.00
69204;DHT22;56317;27.658;85.326;2024-02-14T03:08:05;14.70;1.00
69204;DHT22;56317;27.658;85.326;2024-02-14T03:10:34;14.60;1.00
69204;DHT22;56317;27.658;85.326;2024-02-14T03:13:01;14.50;1.00
69204;DHT22;56317;27.658;85.326;2024-02-14T03:15:28;14.70;1.00
69204;DHT22;56317;27.658;85.326;2024-02-14T03:17:56;15.00;1.00
69204;DHT22;56317;27.658;85.326;2024-02-14T03:20:23;15.20;1.00
69204;DHT22;56317;27.658;85.326;2024-02-14T03:22:50;15.20;99.90
69204;DHT22;56317;27.658;85.326;2024-02-14T03:25:19;15.50;99.90
69204;DHT22;56317;27.658;85.326;2024-02-14T03:27:47;15.60;99.90
69204;DHT22;56317;27.658;85.326;2024-02-14T03:30:20;15.70;99.90
69204;DHT22;56317;27.658;85.326;2024-02-14T03:32:49;15.60;99.90
69204;DHT22;56317;27.658;85.326;2024-02-14T03:35:16;15.50;99.90
69204;DHT22;56317;27.658;85.326;2024-02-14T03:37:46;15.60;99.90
69204;DHT22;56317;27.658;85.326;2024-02-14T03:40:19;15.50;99.90
69204;DHT22;56317;27.658;85.326;2024-02-14T03:42:49;15.50;99.90
69204;DHT22;56317;27.658;85.326;2024-02-14T03:45:16;15.40;99.90
69204;DHT22;56317;27.658;85.326;2024-02-14T03:47:44;15.30;99.90
69204;DHT22;56317;27.658;85.326;2024-02-14T03:50:11;15.20;99.90
69204;DHT22;56317;27.658;85.326;2024-02-14T03:52:38;15.20;99.90
69204;DHT22;56317;27.658;85.326;2024-02-14T03:55:06;15.10;99.90
69204;DHT22;56317;27.658;85.326;2024-02-14T03:57:35;15.20;99.90
69204;DHT22;56317;27.658;85.326;2024-02-14T04:00:05;15.50;99.90
69204;DHT22;56317;27.658;85.326;2024-02-14T04:02:36;15.80;99.90
69204;DHT22;56317;27.658;85.326;2024-02-14T04:05:03;16.20;99.90
69204;DHT22;56317;27.658;85.326;2024-02-14T04:07:33;16.70;91.70
69204;DHT22;56317;27.658;85.326;2024-02-14T04:10:01;17.10;61.30
69204;DHT22;56317;27.658;85.326;2024-02-14T04:12:28;17.30;7.80
69204;DHT22;56317;27.658;85.326;2024-02-14T04:14:55;17.30;1.00
69204;DHT22;56317;27.658;85.326;2024-02-14T04:17:22;17.10;1.00
69204;DHT22;56317;27.658;85.326;2024-02-14T04:19:51;16.90;1.00
69204;DHT22;56317;27.658;85.326;2024-02-14T04:22:18;16.80;1.00
69204;DHT22;56317;27.658;85.326;2024-02-14T04:24:45;16.80;1.00
69204;DHT22;56317;27.658;85.326;2024-02-14T04:27:12;16.90;1.00
69204;DHT22;56317;27.658;85.326;2024-02-14T04:29:40;17.10;1.00
69204;DHT22;56317;27.658;85.326;2024-02-14T04:32:07;17.10;1.00
69204;DHT22;56317;27.658;85.326;2024-02-14T04:34:35;17.10;1.00
69204;DHT22;56317;27.658;85.326;2024-02-14T04:37:05;17.00;1.00
69204;DHT22;56317;27.658;85.326;2024-02-14T04:39:42;16.90;1.00
69204;DHT22;56317;27.658;85.326;2024-02-14T04:42:09;16.80;1.00
69204;DHT22;56317;27.658;85.326;2024-02-14T04:44:36;16.70;1.00
69204;DHT22;56317;27.658;85.326;2024-02-14T04:47:04;16.60;1.00
69204;DHT22;56317;27.658;85.326;2024-02-14T04:49:31;16.50;1.00
69204;DHT22;56317;27.658;85.326;2024-02-14T04:51:59;16.50;1.00
69204;DHT22;56317;27.658;85.326;2024-02-14T04:54:26;16.50;1.00
69204;DHT22;56317;27.658;85.326;2024-02-14T04:56:55;16.80;1.00
69204;DHT22;56317;27.658;85.326;2024-02-14T04:59:22;17.40;1.00
69204;DHT22;56317;27.658;85.326;2024-02-14T05:01:49;17.70;1.00
69204;DHT22;56317;27.658;85.326;2024-02-14T05:04:18;17.70;1.00
69204;DHT22;56317;27.658;85.326;2024-02-14T05:06:46;17.60;1.00
69204;DHT22;56317;27.658;85.326;2024-02-14T05:09:13;17.40;1.00
69204;DHT22;56317;27.658;85.326;2024-02-14T05:11:41;17.20;1.00
69204;DHT22;56317;27.658;85.326;2024-02-14T05:14:09;17.00;1.00
69204;DHT22;56317;27.658;85.326;2024-02-14T05:16:36;17.00;1.00
69204;DHT22;56317;27.658;85.326;2024-02-14T05:19:03;17.10;1.00
69204;DHT22;56317;27.658;85.326;2024-02-14T05:21:30;17.00;1.00
69204;DHT22;56317;27.658;85.326;2024-02-14T05:23:58;16.90;1.00
69204;DHT22;56317;27.658;85.326;2024-02-14T05:26:26;16.70;1.00
69204;DHT22;56317;27.658;85.326;2024-02-14T05:28:53;16.70;1.00
69204;DHT22;56317;27.658;85.326;2024-02-14T05:31:20;16.80;1.00
69204;DHT22;56317;27.658;85.326;2024-02-14T05:33:48;16.80;1.00
69204;DHT22;56317;27.658;85.326;2024-02-14T05:36:15;16.70;1.00
69204;DHT22;56317;27.658;85.326;2024-02-14T05:38:43;16.60;1.00
69204;DHT22;56317;27.658;85.326;2024-02-14T05:41:10;16.60;1.00
69204;DHT22;56317;27.658;85.326;2024-02-14T05:43:38;16.60;1.00
69204;DHT22;56317;27.658;85.326;2024-02-14T05:46:05;16.60;1.00
69204;DHT22;56317;27.658;85.326;2024-02-14T05:48:32;16.70;1.00
69204;DHT22;56317;27.658;85.326;2024-02-14T05:50:59;16.80;1.00
69204;DHT22;56317;27.658;85.326;2024-02-14T05:53:26;16.80;1.00
69204;DHT22;56317;27.658;85.326;2024-02-14T05:55:53;17.00;1.00
69204;DHT22;56317;27.658;85.326;2024-02-14T05:58:21;17.20;1.00
69204;DHT22;56317;27.658;85.326;2024-02-14T06:00:48;17.50;1.00
69204;DHT22;56317;27.658;85.326;2024-02-14T06:03:15;17.60;1.00
69204;DHT22;56317;27.658;85.326;2024-02-14T06:05:42;17.70;1.00
69204;DHT22;56317;27.658;85.326;2024-02-14T06:08:10;17.70;1.00
69204;DHT22;56317;27.658;85.326;2024-02-14T06:10:37;17.60;1.00
69204;DHT22;56317;27.658;85.326;2024-02-14T06:13:06;17.60;1.00
69204;DHT22;56317;27.658;85.326;2024-02-14T06:15:33;17.70;1.00
69204;DHT22;56317;27.658;85.326;2024-02-14T06:18:01;17.60;1.00
69204;DHT22;56317;27.658;85.326;2024-02-14T06:20:28;17.80;1.00
69204;DHT22;56317;27.658;85.326;2024-02-14T06:22:55;18.00;1.00
69204;DHT22;56317;27.658;85.326;2024-02-14T06:25:23;18.10;1.00
69204;DHT22;56317;27.658;85.326;2024-02-14T06:27:50;18.20;1.00
69204;DHT22;56317;27.658;85.326;2024-02-14T06:30:17;18.40;1.00
69204;DHT22;56317;27.658;85.326;2024-02-14T06:32:44;18.70;1.00
69204;DHT22;56317;27.658;85.326;2024-02-14T06:35:12;19.20;1.00
69204;DHT22;56317;27.658;85.326;2024-02-14T06:37:41;19.90;1.00
69204;DHT22;56317;27.658;85.326;2024-02-14T06:40:08;21.10;1.00
69204;DHT22;56317;27.658;85.326;2024-02-14T06:42:37;21.80;99.90
69204;DHT22;56317;27.658;85.326;2024-02-14T06:45:05;21.60;99.90
69204;DHT22;56317;27.658;85.326;2024-02-14T06:47:33;20.90;99.90
69204;DHT22;56317;27.658;85.326;2024-02-14T06:50:00;20.40;99.90
69204;DHT22;56317;27.658;85.326;2024-02-14T06:52:27;19.40;99.90
69204;DHT22;56317;27.658;85.326;2024-02-14T06:54:54;19.00;99.90
69204;DHT22;56317;27.658;85.326;2024-02-14T06:57:21;19.30;99.90
69204;DHT22;56317;27.658;85.326;2024-02-14T06:59:52;19.30;99.90
69204;DHT22;56317;27.658;85.326;2024-02-14T07:02:19;19.00;99.90
69204;DHT22;56317;27.658;85.326;2024-02-14T07:04:47;19.10;99.90
69204;DHT22;56317;27.658;85.326;2024-02-14T07:07:15;19.10;99.90
69204;DHT22;56317;27.658;85.326;2024-02-14T07:09:43;19.40;99.90
69204;DHT22;56317;27.658;85.326;2024-02-14T07:12:10;19.70;99.90
69204;DHT22;56317;27.658;85.326;2024-02-14T07:14:37;20.00;99.90
69204;DHT22;56317;27.658;85.326;2024-02-14T07:17:04;20.20;99.90
69204;DHT22;56317;27.658;85.326;2024-02-14T07:19:32;20.30;99.90
69204;DHT22;56317;27.658;85.326;2024-02-14T07:21:59;20.30;99.90
69204;DHT22;56317;27.658;85.326;2024-02-14T07:24:26;20.50;99.90
69204;DHT22;56317;27.658;85.326;2024-02-14T07:26:53;20.70;99.90
69204;DHT22;56317;27.658;85.326;2024-02-14T07:29:20;20.90;99.90
69204;DHT22;56317;27.658;85.326;2024-02-14T07:31:48;21.00;99.90
69204;DHT22;56317;27.658;85.326;2024-02-14T07:34:15;21.00;99.90
69204;DHT22;56317;27.658;85.326;2024-02-14T07:36:43;20.90;99.90
69204;DHT22;56317;27.658;85.326;2024-02-14T07:39:12;21.10;99.90
69204;DHT22;56317;27.658;85.326;2024-02-14T07:41:40;21.40;99.90
69204;DHT22;56317;27.658;85.326;2024-02-14T07:44:07;21.70;99.90
69204;DHT22;56317;27.658;85.326;2024-02-14T07:46:34;21.80;99.90
69204;DHT22;56317;27.658;85.326;2024-02-14T07:49:01;21.70;99.90
69204;DHT22;56317;27.658;85.326;2024-02-14T07:51:28;21.10;99.90
69204;DHT22;56317;27.658;85.326;2024-02-14T07:53:56;20.70;99.90
69204;DHT22;56317;27.658;85.326;2024-02-14T07:56:24;20.70;99.90
69204;DHT22;56317;27.658;85.326;2024-02-14T07:58:51;20.70;99.90
69204;DHT22;56317;27.658;85.326;2024-02-14T08:01:18;21.00;99.90
69204;DHT22;56317;27.658;85.326;2024-02-14T08:03:46;21.20;99.90
69204;DHT22;56317;27.658;85.326;2024-02-14T08:06:14;21.20;99.90
69204;DHT22;56317;27.658;85.326;2024-02-14T08:08:41;21.20;99.90
69204;DHT22;56317;27.658;85.326;2024-02-14T08:11:10;21.20;99.90
69204;DHT22;56317;27.658;85.326;2024-02-14T08:13:37;21.10;99.90
69204;DHT22;56317;27.658;85.326;2024-02-14T08:16:06;20.80;99.90
69204;DHT22;56317;27.658;85.326;2024-02-14T08:18:34;20.60;99.90
69204;DHT22;56317;27.658;85.326;2024-02-14T08:21:01;20.30;99.90
69204;DHT22;56317;27.658;85.326;2024-02-14T08:23:32;20.30;99.90
69204;DHT22;56317;27.658;85.326;2024-02-14T08:26:01;20.10;99.90
69204;DHT22;56317;27.658;85.326;2024-02-14T08:28:29;19.90;99.90
69204;DHT22;56317;27.658;85.326;2024-02-14T08:30:57;19.80;99.90
69204;DHT22;56317;27.658;85.326;2024-02-14T08:33:24;19.70;99.90
69204;DHT22;56317;27.658;85.326;2024-02-14T08:35:52;19.20;99.90
69204;DHT22;56317;27.658;85.326;2024-02-14T08:38:23;19.10;99.90
69204;DHT22;56317;27.658;85.326;2024-02-14T08:40:50;19.10;99.90
69204;DHT22;56317;27.658;85.326;2024-02-14T08:43:18;19.00;99.90
69204;DHT22;56317;27.658;85.326;2024-02-14T08:45:45;18.50;99.90
69204;DHT22;56317;27.658;85.326;2024-02-14T08:48:12;18.20;99.90
69204;DHT22;56317;27.658;85.326;2024-02-14T08:50:39;17.90;99.90
69204;DHT22;56317;27.658;85.326;2024-02-14T08:53:07;17.90;99.90
69204;DHT22;56317;27.658;85.326;2024-02-14T08:55:37;17.90;99.90
69204;DHT22;56317;27.658;85.326;2024-02-14T08:58:05;17.90;99.90
69204;DHT22;56317;27.658;85.326;2024-02-14T09:00:32;17.80;99.90
69204;DHT22;56317;27.658;85.326;2024-02-14T09:03:05;17.70;99.90
69204;DHT22;56317;27.658;85.326;2024-02-14T09:05:32;17.70;99.90
69204;DHT22;56317;27.658;85.326;2024-02-14T09:08:00;17.70;99.90
69204;DHT22;56317;27.658;85.326;2024-02-14T09:10:27;17.50;99.90
69204;DHT22;56317;27.658;85.326;2024-02-14T09:12:54;17.50;99.90
69204;DHT22;56317;27.658;85.326;2024-02-14T09:15:21;17.60;99.90
69204;DHT22;56317;27.658;85.326;2024-02-14T09:17:49;17.90;99.90
69204;DHT22;56317;27.658;85.326;2024-02-14T09:20:16;17.90;99.90
69204;DHT22;56317;27.658;85.326;2024-02-14T09:22:45;17.90;99.90
69204;DHT22;56317;27.658;85.326;2024-02-14T09:25:12;17.80;99.90
69204;DHT22;56317;27.658;85.326;2024-02-14T09:27:41;17.70;99.90
69204;DHT22;56317;27.658;85.326;2024-02-14T09:30:08;17.70;99.90
69204;DHT22;56317;27.658;85.326;2024-02-14T09:32:35;18.00;99.90
69204;DHT22;56317;27.658;85.326;2024-02-14T09:35:03;18.40;99.90
69204;DHT22;56317;27.658;85.326;2024-02-14T09:37:35;19.00;99.90
69204;DHT22;56317;27.658;85.326;2024-02-14T09:40:05;19.80;99.90
69204;DHT22;56317;27.658;85.326;2024-02-14T09:42:43;20.40;99.90
69204;DHT22;56317;27.658;85.326;2024-02-14T09:45:15;20.80;99.90
69204;DHT22;56317;27.658;85.326;2024-02-14T09:47:42;21.30;99.90
69204;DHT22;56317;27.658;85.326;2024-02-14T09:50:10;21.00;99.90
69204;DHT22;56317;27.658;85.326;2024-02-14T09:52:39;20.30;99.90
69204;DHT22;56317;27.658;85.326;2024-02-14T09:55:07;19.60;99.90
69204;DHT22;56317;27.658;85.326;2024-02-14T09:57:38;18.90;99.90
69204;DHT22;56317;27.658;85.326;2024-02-14T10:00:07;18.60;99.90
69204;DHT22;56317;27.658;85.326;2024-02-14T10:02:36;18.10;99.90
69204;DHT22;56317;27.658;85.326;2024-02-14T10:05:04;17.80;99.90
69204;DHT22;56317;27.658;85.326;2024-02-14T10:07:40;17.70;99.90
69204;DHT22;56317;27.658;85.326;2024-02-14T10:10:08;17.60;99.90
69204;DHT22;56317;27.658;85.326;2024-02-14T10:12:36;17.70;99.90
69204;DHT22;56317;27.658;85.326;2024-02-14T10:15:05;17.70;99.90
69204;DHT22;56317;27.658;85.326;2024-02-14T10:17:35;17.80;99.90
69204;DHT22;56317;27.658;85.326;2024-02-14T10:20:03;18.00;99.90
69204;DHT22;56317;27.658;85.326;2024-02-14T10:22:37;18.20;99.90
69204;DHT22;56317;27.658;85.326;2024-02-14T10:25:05;18.30;99.90
69204;DHT22;56317;27.658;85.326;2024-02-14T10:27:40;18.10;99.90
69204;DHT22;56317;27.658;85.326;2024-02-14T10:30:08;18.00;99.90
69204;DHT22;56317;27.658;85.326;2024-02-14T10:32:37;18.40;99.90
69204;DHT22;56317;27.658;85.326;2024-02-14T10:35:08;19.50;99.90
69204;DHT22;56317;27.658;85.326;2024-02-14T10:37:38;19.50;99.90
69204;DHT22;56317;27.658;85.326;2024-02-14T10:40:06;19.50;99.90
69204;DHT22;56317;27.658;85.326;2024-02-14T10:42:35;19.30;99.90
69204;DHT22;56317;27.658;85.326;2024-02-14T10:45:03;19.20;99.90
69204;DHT22;56317;27.658;85.326;2024-02-14T10:47:35;18.70;99.90
69204;DHT22;56317;27.658;85.326;2024-02-14T10:50:07;18.20;99.90
69204;DHT22;56317;27.658;85.326;2024-02-14T10:52:36;18.00;99.90
69204;DHT22;56317;27.658;85.326;2024-02-14T10:55:06;17.60;99.90
69204;DHT22;56317;27.658;85.326;2024-02-14T10:57:33;17.30;99.90
69204;DHT22;56317;27.658;85.326;2024-02-14T11:00:06;17.00;99.90
69204;DHT22;56317;27.658;85.326;2024-02-14T11:02:36;16.90;99.90
69204;DHT22;56317;27.658;85.326;2024-02-14T11:05:05;16.80;99.90
69204;DHT22;56317;27.658;85.326;2024-02-14T11:07:33;16.80;99.90
69204;DHT22;56317;27.658;85.326;2024-02-14T11:10:07;16.70;99.90
69204;DHT22;56317;27.658;85.326;2024-02-14T11:12:36;16.80;99.90
69204;DHT22;56317;27.658;85.326;2024-02-14T11:15:19;16.70;99.90
69204;DHT22;56317;27.658;85.326;2024-02-14T11:17:48;16.70;99.90
69204;DHT22;56317;27.658;85.326;2024-02-14T11:20:20;16.50;99.90
69204;DHT22;56317;27.658;85.326;2024-02-14T11:23:07;16.40;99.90
69204;DHT22;56317;27.658;85.326;2024-02-14T11:25:38;16.30;99.90
69204;DHT22;56317;27.658;85.326;2024-02-14T11:28:16;16.20;99.90
69204;DHT22;56317;27.658;85.326;2024-02-14T11:30:44;16.10;99.90
69204;DHT22;56317;27.658;85.326;2024-02-14T11:33:13;16.00;99.90
69204;DHT22;56317;27.658;85.326;2024-02-14T11:35:42;15.90;99.90
69204;DHT22;56317;27.658;85.326;2024-02-14T11:38:09;15.80;99.90
69204;DHT22;56317;27.658;85.326;2024-02-14T11:40:40;15.60;99.90
69204;DHT22;56317;27.658;85.326;2024-02-14T11:43:14;15.50;99.90
69204;DHT22;56317;27.658;85.326;2024-02-14T11:45:45;15.30;99.90
69204;DHT22;56317;27.658;85.326;2024-02-14T11:48:16;15.20;99.90
69204;DHT22;56317;27.658;85.326;2024-02-14T11:50:47;14.90;99.90
69204;DHT22;56317;27.658;85.326;2024-02-14T11:53:15;14.80;99.90
69204;DHT22;56317;27.658;85.326;2024-02-14T11:55:48;14.70;99.90
69204;DHT22;56317;27.658;85.326;2024-02-14T11:58:17;14.70;99.90
69204;DHT22;56317;27.658;85.326;2024-02-14T12:00:46;14.70;99.90
69204;DHT22;56317;27.658;85.326;2024-02-14T12:03:18;14.60;99.90
69204;DHT22;56317;27.658;85.326;2024-02-14T12:05:47;14.50;99.90
69204;DHT22;56317;27.658;85.326;2024-02-14T12:08:15;14.40;99.90
69204;DHT22;56317;27.658;85.326;2024-02-14T12:10:46;14.40;99.90
69204;DHT22;56317;27.658;85.326;2024-02-14T12:13:19;14.30;99.90
69204;DHT22;56317;27.658;85.326;2024-02-14T12:15:48;14.20;99.90
69204;DHT22;56317;27.658;85.326;2024-02-14T12:18:18;14.10;99.90
69204;DHT22;56317;27.658;85.326;2024-02-14T12:20:46;14.10;99.90
69204;DHT22;56317;27.658;85.326;2024-02-14T12:23:16;13.90;99.90
69204;DHT22;56317;27.658;85.326;2024-02-14T12:25:44;13.80;99.90
69204;DHT22;56317;27.658;85.326;2024-02-14T12:28:19;13.70;99.90
69204;DHT22;56317;27.658;85.326;2024-02-14T12:30:48;13.70;99.90
69204;DHT22;56317;27.658;85.326;2024-02-14T12:33:16;13.60;99.90
69204;DHT22;56317;27.658;85.326;2024-02-14T12:35:45;13.50;99.90
69204;DHT22;56317;27.658;85.326;2024-02-14T12:38:14;13.50;1.00
69204;DHT22;56317;27.658;85.326;2024-02-14T12:40:42;13.30;1.00
69204;DHT22;56317;27.658;85.326;2024-02-14T12:43:11;13.20;1.00
69204;DHT22;56317;27.658;85.326;2024-02-14T12:45:39;13.10;1.00
69204;DHT22;56317;27.658;85.326;2024-02-14T12:48:07;12.80;1.00
69204;DHT22;56317;27.658;85.326;2024-02-14T12:50:38;12.60;1.00
69204;DHT22;56317;27.658;85.326;2024-02-14T12:53:07;12.30;1.00
69204;DHT22;56317;27.658;85.326;2024-02-14T12:55:34;12.30;1.00
69204;DHT22;56317;27.658;85.326;2024-02-14T12:58:02;12.10;1.00
69204;DHT22;56317;27.658;85.326;2024-02-14T13:00:30;12.20;1.00
69204;DHT22;56317;27.658;85.326;2024-02-14T13:02:58;12.10;1.00
69204;DHT22;56317;27.658;85.326;2024-02-14T13:05:27;12.00;1.00
69204;DHT22;56317;27.658;85.326;2024-02-14T13:07:54;11.70;1.00
69204;DHT22;56317;27.658;85.326;2024-02-14T13:10:21;11.60;1.00
69204;DHT22;56317;27.658;85.326;2024-02-14T13:12:49;11.50;1.00
69204;DHT22;56317;27.658;85.326;2024-02-14T13:15:17;11.50;77.20
69204;DHT22;56317;27.658;85.326;2024-02-14T13:17:44;11.40;99.90
69204;DHT22;56317;27.658;85.326;2024-02-14T13:20:11;11.40;99.90
69204;DHT22;56317;27.658;85.326;2024-02-14T13:22:42;11.40;99.90
69204;DHT22;56317;27.658;85.326;2024-02-14T13:25:09;11.50;99.90
69204;DHT22;56317;27.658;85.326;2024-02-14T13:27:36;11.60;99.90
69204;DHT22;56317;27.658;85.326;2024-02-14T13:30:05;11.70;99.90
69204;DHT22;56317;27.658;85.326;2024-02-14T13:32:33;11.80;70.50
69204;DHT22;56317;27.658;85.326;2024-02-14T13:35:00;11.70;56.30
69204;DHT22;56317;27.658;85.326;2024-02-14T13:37:28;11.50;91.50
69204;DHT22;56317;27.658;85.326;2024-02-14T13:39:55;11.40;99.90
69204;DHT22;56317;27.658;85.326;2024-02-14T13:42:22;11.30;99.90
69204;DHT22;56317;27.658;85.326;2024-02-14T13:44:49;11.20;99.90
69204;DHT22;56317;27.658;85.326;2024-02-14T13:47:19;11.10;99.90
69204;DHT22;56317;27.658;85.326;2024-02-14T13:49:47;11.10;99.90
69204;DHT22;56317;27.658;85.326;2024-02-14T13:52:14;11.20;99.90
69204;DHT22;56317;27.658;85.326;2024-02-14T13:54:43;11.10;99.90
69204;DHT22;56317;27.658;85.326;2024-02-14T13:57:10;11.00;99.90
69204;DHT22;56317;27.658;85.326;2024-02-14T13:59:38;11.00;99.90
69204;DHT22;56317;27.658;85.326;2024-02-14T14:02:05;10.90;99.90
69204;DHT22;56317;27.658;85.326;2024-02-14T14:04:32;10.90;1.00
69204;DHT22;56317;27.658;85.326;2024-02-14T14:07:01;10.90;99.90
69204;DHT22;56317;27.658;85.326;2024-02-14T14:09:30;11.00;1.00
69204;DHT22;56317;27.658;85.326;2024-02-14T14:11:59;11.10;1.00
69204;DHT22;56317;27.658;85.326;2024-02-14T14:14:26;11.20;1.00
69204;DHT22;56317;27.658;85.326;2024-02-14T14:16:55;11.30;99.90
69204;DHT22;56317;27.658;85.326;2024-02-14T14:19:24;11.30;99.90
69204;DHT22;56317;27.658;85.326;2024-02-14T14:21:51;11.30;99.90
69204;DHT22;56317;27.658;85.326;2024-02-14T14:24:18;11.40;99.90
69204;DHT22;56317;27.658;85.326;2024-02-14T14:26:45;11.40;99.90
69204;DHT22;56317;27.658;85.326;2024-02-14T14:29:12;11.50;99.90
69204;DHT22;56317;27.658;85.326;2024-02-14T14:31:39;11.60;45.70
69204;DHT22;56317;27.658;85.326;2024-02-14T14:34:06;11.90;1.00
69204;DHT22;56317;27.658;85.326;2024-02-14T14:36:34;11.90;1.00
69204;DHT22;56317;27.658;85.326;2024-02-14T14:39:04;11.80;1.00
69204;DHT22;56317;27.658;85.326;2024-02-14T14:41:31;11.70;12.80
69204;DHT22;56317;27.658;85.326;2024-02-14T14:43:58;11.60;71.90
69204;DHT22;56317;27.658;85.326;2024-02-14T14:46:26;11.60;99.90
69204;DHT22;56317;27.658;85.326;2024-02-14T14:48:53;11.60;99.90
69204;DHT22;56317;27.658;85.326;2024-02-14T14:51:20;11.60;99.90
69204;DHT22;56317;27.658;85.326;2024-02-14T14:53:47;11.60;99.90
69204;DHT22;56317;27.658;85.326;2024-02-14T14:56:14;11.50;99.90
69204;DHT22;56317;27.658;85.326;2024-02-14T14:58:41;11.60;99.90
69204;DHT22;56317;27.658;85.326;2024-02-14T15:01:09;11.60;99.90
69204;DHT22;56317;27.658;85.326;2024-02-14T15:03:36;11.60;99.90
69204;DHT22;56317;27.658;85.326;2024-02-14T15:06:03;11.50;99.90
69204;DHT22;56317;27.658;85.326;2024-02-14T15:08:30;11.50;99.90
69204;DHT22;56317;27.658;85.326;2024-02-14T15:10:58;11.40;99.90
69204;DHT22;56317;27.658;85.326;2024-02-14T15:13:26;11.40;99.90
69204;DHT22;56317;27.658;85.326;2024-02-14T15:15:53;11.40;1.00
69204;DHT22;56317;27.658;85.326;2024-02-14T15:18:21;11.30;99.90
69204;DHT22;56317;27.658;85.326;2024-02-14T15:20:48;11.30;99.90
69204;DHT22;56317;27.658;85.326;2024-02-14T15:23:15;11.30;1.00
69204;DHT22;56317;27.658;85.326;2024-02-14T15:25:42;11.20;1.00
69204;DHT22;56317;27.658;85.326;2024-02-14T15:28:10;11.20;99.90
69204;DHT22;56317;27.658;85.326;2024-02-14T15:30:48;11.10;1.00